EST,Max TemperatureF,Mean TemperatureF,Min TemperatureF,Max Dew PointF,MeanDew PointF,Min DewpointF,Max Humidity, Mean Humidity, Min Humidity, Max Sea Level PressureIn, Mean Sea Level PressureIn, Min Sea Level PressureIn, Max VisibilityMiles, Mean VisibilityMiles, Min VisibilityMiles, Max Wind SpeedMPH, Mean Wind SpeedMPH, Max Gust SpeedMPH,PrecipitationIn, CloudCover, Events, WindDirDegrees
2012-11-1,55,44,32,36,34,32,100,69,44,29.86,29.79,29.76,10,10,10,14,4,22,0.00,5,,276
2012-11-2,59,46,32,39,33,30,100,75,36,29.99,29.89,29.85,10,10,10,12,1,20,0.00,3,,293
2012-11-3,57,44,32,37,32,28,100,66,36,30.12,30.06,29.99,10,10,10,14,3,23,0.00,1,,327
2012-11-4,51,44,37,41,38,34,100,78,58,30.10,30.05,30.00,10,10,10,10,4,,0.00,6,Rain,59
2012-11-5,51,42,32,41,34,30,100,78,44,30.14,30.08,30.03,10,10,7,9,2,,0.00,2,,16
2012-11-6,42,36,30,34,31,30,100,82,61,30.17,30.08,29.96,10,10,10,10,3,,0.00,4,,18
2012-11-7,50,41,32,36,32,30,100,74,50,29.96,29.91,29.86,10,10,10,9,4,,0.00,6,,7
2012-11-8,59,46,32,36,25,14,100,56,17,30.14,30.04,29.96,10,10,7,12,2,16,0.00,1,,319
2012-11-9,62,46,30,36,30,23,100,65,30,30.27,30.22,30.14,10,10,10,7,1,,0.00,0,,307
2012-11-10,71,52,32,37,34,30,100,66,22,30.40,30.32,30.27,10,10,10,9,1,,0.00,0,,211
2012-11-11,71,52,32,50,42,32,100,69,35,30.50,30.44,30.39,10,10,10,13,2,18,0.00,0,,208
2012-11-12,69,56,42,61,55,43,100,89,60,30.45,30.32,30.20,10,8,0,10,3,16,0.00,4,Fog,172
2012-11-13,62,48,33,61,45,34,100,96,82,30.45,30.33,30.17,10,8,0,13,6,24,0.09,6,Fog-Rain,355
2012-11-14,46,39,32,36,31,28,100,77,57,30.52,30.45,30.40,10,10,10,16,6,21,0.00,0,,34
2012-11-15,44,38,33,43,36,30,100,86,66,30.40,30.32,30.27,10,9,5,8,4,,0.12,5,Rain,10
2012-11-16,51,42,33,41,35,32,100,76,47,30.41,30.33,30.29,10,10,2,9,3,17,0.00,1,,18
2012-11-17,53,42,30,34,30,23,100,66,33,30.52,30.48,30.42,10,10,10,14,5,21,0.00,0,,29
2012-11-18,53,48,42,43,40,34,81,73,67,30.51,30.45,30.39,10,10,10,16,9,24,0.00,7,,26
2012-11-19,53,48,44,45,42,39,87,77,67,30.39,30.30,30.21,10,10,10,14,9,20,0.00,6,,13
2012-11-20,57,46,33,45,41,34,100,83,59,30.21,30.14,30.08,10,10,3,7,3,,0.00,2,,358
2012-11-21,59,46,32,46,35,32,100,79,39,30.21,30.17,30.13,10,8,0,13,3,17,0.00,1,Fog,9
2012-11-22,59,44,28,32,29,23,100,71,25,30.27,30.22,30.18,10,10,10,12,2,,0.00,0,,13
2012-11-23,64,45,26,37,32,27,100,64,32,30.18,30.02,29.89,10,10,10,14,3,18,0.00,1,,242
2012-11-24,50,40,26,32,22,16,69,49,32,30.13,30.02,29.92,10,10,10,16,7,22,0.00,0,,325
2012-11-25,50,34,19,27,21,18,100,64,28,30.17,30.10,30.02,10,10,3,14,2,18,0.00,0,,227
2012-11-26,62,45,28,32,26,23,93,58,22,30.21,30.16,30.08,10,10,10,7,1,,0.00,0,,273
2012-11-27,51,42,33,45,38,30,100,85,58,30.27,30.18,30.13,10,9,4,8,2,,0.10,8,Rain,20
2012-11-28,50,38,26,36,32,27,100,82,43,30.41,30.32,30.26,10,10,5,8,1,,0.00,3,,324
2012-11-29,51,36,21,30,27,21,100,77,37,30.49,30.43,30.38,10,10,7,8,1,,0.00,0,,240
2012-11-30,60,44,28,34,32,28,100,75,34,30.41,30.35,30.30,10,10,10,9,2,,0.00,0,,224